Time;durP1;ratioP1;P1;durP2;ratioP2;P2;SDS_P1;SDS_P2;PMS_P1;PMS_P2;Temp;Humidity;BMP_temperature;BMP_pressure;BME280_temperature;BME280_humidity;BME280_pressure;Samples;Min_cycle;Max_cycle;Signal;HPM_P1;HPM_P2
2020/12/16 00:00:49;;;;;;;22.07;16.07;;;5.20;99.90;;;;;;5033651;28;20184;-60
2020/12/16 00:03:14;;;;;;;22.23;16.37;;;5.20;99.90;;;;;;5033675;28;20194;-51
2020/12/16 00:05:40;;;;;;;23.67;17.07;;;5.10;99.90;;;;;;5033357;28;20554;-60
2020/12/16 00:08:06;;;;;;;22.03;15.93;;;5.10;99.90;;;;;;5033731;28;20196;-52
2020/12/16 00:10:31;;;;;;;23.73;17.23;;;5.00;99.90;;;;;;5033281;28;20187;-53
2020/12/16 00:12:57;;;;;;;22.70;16.23;;;4.90;99.90;;;;;;5033505;28;20299;-59
2020/12/16 00:15:22;;;;;;;22.30;16.00;;;4.80;99.90;;;;;;5033111;28;20245;-52
2020/12/16 00:17:49;;;;;;;23.37;16.20;;;4.80;99.90;;;;;;5033383;28;20203;-58
2020/12/16 00:20:15;;;;;;;21.83;15.93;;;4.80;99.90;;;;;;5033632;28;20188;-59
2020/12/16 00:22:41;;;;;;;22.00;16.20;;;4.90;99.90;;;;;;5033850;28;20180;-52
2020/12/16 00:25:08;;;;;;;24.43;17.00;;;5.00;99.90;;;;;;5033470;28;20199;-51
2020/12/16 00:27:34;;;;;;;22.90;16.00;;;4.90;99.90;;;;;;5033611;28;20246;-51
2020/12/16 00:30:00;;;;;;;20.03;15.77;;;4.90;99.90;;;;;;5033385;28;20179;-51
2020/12/16 00:32:26;;;;;;;22.67;15.70;;;4.90;99.90;;;;;;5033822;28;20172;-50
2020/12/16 00:34:52;;;;;;;24.13;16.60;;;4.80;99.90;;;;;;5033569;28;20187;-51
2020/12/16 00:37:17;;;;;;;22.30;16.20;;;4.80;99.90;;;;;;5033361;28;20231;-54
2020/12/16 00:39:43;;;;;;;22.07;15.67;;;4.80;99.90;;;;;;5036575;28;20214;-52
2020/12/16 00:42:09;;;;;;;19.93;15.47;;;4.80;99.90;;;;;;5036829;28;20184;-60
2020/12/16 00:44:35;;;;;;;21.30;15.60;;;4.80;99.90;;;;;;5036797;28;20200;-60
2020/12/16 00:47:00;;;;;;;22.70;15.80;;;4.90;99.90;;;;;;5037956;28;20229;-56
2020/12/16 00:49:26;;;;;;;21.93;15.63;;;5.00;99.90;;;;;;5037538;28;20221;-52
2020/12/16 00:51:53;;;;;;;21.10;15.90;;;5.00;99.90;;;;;;5036930;28;20176;-53
2020/12/16 00:54:18;;;;;;;23.87;16.73;;;5.00;99.90;;;;;;5036613;28;20657;-58
2020/12/16 00:56:44;;;;;;;20.97;15.40;;;5.00;99.90;;;;;;5018837;28;20214;-59
2020/12/16 00:59:10;;;;;;;20.67;14.93;;;5.00;99.90;;;;;;5036731;28;20183;-61
2020/12/16 01:01:35;;;;;;;23.83;16.10;;;5.10;99.90;;;;;;5036909;28;20172;-51
2020/12/16 01:04:01;;;;;;;21.97;16.43;;;5.10;99.90;;;;;;5037227;28;20516;-56
2020/12/16 01:06:26;;;;;;;21.57;15.50;;;5.20;99.90;;;;;;5036479;28;20255;-57
2020/12/16 01:08:52;;;;;;;21.67;15.47;;;5.10;99.90;;;;;;5036760;28;20180;-52
2020/12/16 01:11:17;;;;;;;25.03;15.80;;;5.00;99.90;;;;;;5036279;28;20559;-61
2020/12/16 01:13:43;;;;;;;20.43;16.00;;;4.90;99.90;;;;;;5037008;28;20195;-55
2020/12/16 01:16:09;;;;;;;20.37;15.03;;;4.90;99.90;;;;;;5036195;28;20180;-56
2020/12/16 01:18:34;;;;;;;22.57;16.10;;;4.90;99.90;;;;;;5036940;28;20204;-51
2020/12/16 01:21:00;;;;;;;23.27;17.30;;;4.90;99.90;;;;;;5036364;28;20175;-52
2020/12/16 01:23:25;;;;;;;21.37;15.27;;;5.00;99.90;;;;;;5036769;28;20186;-51
2020/12/16 01:25:51;;;;;;;22.43;15.67;;;5.00;99.90;;;;;;5036244;28;20212;-61
2020/12/16 01:28:16;;;;;;;23.33;15.83;;;4.90;99.90;;;;;;5036306;28;20199;-51
2020/12/16 01:30:42;;;;;;;22.33;16.73;;;4.90;99.90;;;;;;5036778;28;20176;-60
2020/12/16 01:33:07;;;;;;;23.20;16.70;;;4.90;99.90;;;;;;5035973;28;20179;-53
2020/12/16 01:35:33;;;;;;;22.10;15.73;;;4.90;99.90;;;;;;5036099;28;20249;-51
2020/12/16 01:37:58;;;;;;;22.03;14.67;;;4.90;99.90;;;;;;5035923;28;20334;-57
2020/12/16 01:40:24;;;;;;;17.97;14.00;;;4.90;99.90;;;;;;5036475;28;20222;-56
2020/12/16 01:42:50;;;;;;;19.87;14.63;;;4.90;99.90;;;;;;5036213;28;20172;-51
2020/12/16 01:45:19;;;;;;;20.80;14.87;;;4.90;99.90;;;;;;5035800;28;20678;-60
2020/12/16 01:47:45;;;;;;;21.83;15.07;;;5.00;99.90;;;;;;5035949;28;20282;-62
2020/12/16 01:50:12;;;;;;;19.30;14.07;;;5.00;99.90;;;;;;5035803;28;20212;-51
2020/12/16 01:52:38;;;;;;;19.40;14.50;;;5.00;99.90;;;;;;5035957;28;20167;-52
2020/12/16 01:55:06;;;;;;;19.90;15.07;;;5.00;99.90;;;;;;5035515;28;20171;-50
2020/12/16 01:57:37;;;;;;;18.57;14.00;;;5.10;99.90;;;;;;5017850;28;20192;-59
2020/12/16 02:00:11;;;;;;;21.90;14.80;;;5.10;99.90;;;;;;5035673;28;20178;-59
2020/12/16 02:02:42;;;;;;;21.97;15.60;;;5.00;99.90;;;;;;5035622;28;20189;-57
2020/12/16 02:05:09;;;;;;;22.23;14.87;;;5.00;99.90;;;;;;5035808;28;20213;-55
2020/12/16 02:07:36;;;;;;;20.33;14.80;;;5.00;99.90;;;;;;5035669;28;20195;-61
2020/12/16 02:10:02;;;;;;;20.13;13.83;;;5.00;99.90;;;;;;5035707;28;20190;-55
2020/12/16 02:12:32;;;;;;;17.30;13.13;;;5.00;99.90;;;;;;5035903;28;20584;-51
2020/12/16 02:14:57;;;;;;;19.03;13.50;;;5.00;99.90;;;;;;5035447;28;20172;-59
2020/12/16 02:17:23;;;;;;;18.83;14.20;;;5.00;99.90;;;;;;5035537;28;20207;-59
2020/12/16 02:19:55;;;;;;;18.90;13.67;;;5.00;99.90;;;;;;5035466;28;20176;-61
2020/12/16 02:22:21;;;;;;;17.83;13.77;;;5.10;99.90;;;;;;5035341;28;20168;-60
2020/12/16 02:25:03;;;;;;;17.33;13.07;;;5.10;99.90;;;;;;5035328;28;20191;-51
2020/12/16 02:27:29;;;;;;;18.30;13.20;;;5.10;99.90;;;;;;5034952;28;20530;-55
2020/12/16 02:29:55;;;;;;;20.23;14.30;;;5.20;99.90;;;;;;5035404;28;20175;-58
2020/12/16 02:32:24;;;;;;;18.73;13.53;;;5.20;99.90;;;;;;5035406;28;20179;-51
2020/12/16 02:34:50;;;;;;;16.67;13.13;;;5.10;99.90;;;;;;5035202;28;20187;-52
2020/12/16 02:37:17;;;;;;;18.23;13.73;;;5.10;99.90;;;;;;5035187;28;20235;-51
2020/12/16 02:39:42;;;;;;;18.27;13.70;;;5.10;99.90;;;;;;5035520;28;20702;-60
2020/12/16 02:42:09;;;;;;;20.83;14.83;;;5.10;99.90;;;;;;5037065;28;20212;-52
2020/12/16 02:44:35;;;;;;;18.80;13.80;;;5.10;99.90;;;;;;5054608;28;20207;-54
2020/12/16 02:47:02;;;;;;;19.63;14.23;;;5.10;99.90;;;;;;5054674;28;20202;-50
2020/12/16 02:49:28;;;;;;;17.23;13.90;;;5.10;99.90;;;;;;5054567;28;20207;-53
2020/12/16 02:51:54;;;;;;;18.10;13.23;;;5.20;99.90;;;;;;5054431;28;20221;-60
2020/12/16 02:54:23;;;;;;;14.80;12.37;;;5.20;99.90;;;;;;5054922;28;20254;-55
2020/12/16 02:56:50;;;;;;;17.20;12.60;;;5.20;99.90;;;;;;5054355;28;20210;-52
2020/12/16 02:59:19;;;;;;;14.93;12.27;;;5.20;99.90;;;;;;5054735;28;20252;-51
2020/12/16 03:01:48;;;;;;;14.83;11.90;;;5.20;99.90;;;;;;5054252;28;20179;-57
2020/12/16 03:04:14;;;;;;;16.07;12.57;;;5.20;99.90;;;;;;5053922;28;20585;-59
2020/12/16 03:06:39;;;;;;;15.60;12.47;;;5.20;99.90;;;;;;5054642;28;20662;-54
2020/12/16 03:09:05;;;;;;;15.77;12.27;;;5.20;99.90;;;;;;5054846;28;20640;-56
2020/12/16 03:11:30;;;;;;;16.80;12.57;;;5.20;99.90;;;;;;5053986;28;20681;-52
2020/12/16 03:13:56;;;;;;;16.97;13.10;;;5.10;99.90;;;;;;5054512;28;20176;-58
2020/12/16 03:16:22;;;;;;;17.63;13.57;;;5.10;99.90;;;;;;5054303;28;20216;-50
2020/12/16 03:18:47;;;;;;;16.53;12.90;;;5.10;99.90;;;;;;5054548;28;20186;-61
2020/12/16 03:21:21;;;;;;;18.03;12.87;;;5.00;99.90;;;;;;5054620;28;20499;-58
2020/12/16 03:23:46;;;;;;;17.30;12.97;;;4.90;99.90;;;;;;5054539;28;20491;-61
2020/12/16 03:26:12;;;;;;;19.30;12.70;;;4.90;99.90;;;;;;5035654;28;20614;-52
2020/12/16 03:28:37;;;;;;;18.07;14.03;;;4.90;99.90;;;;;;5054036;28;20222;-51
2020/12/16 03:31:04;;;;;;;17.50;13.17;;;4.90;99.90;;;;;;5054480;28;20176;-50
2020/12/16 03:33:30;;;;;;;18.57;13.60;;;4.80;99.90;;;;;;5054355;28;20175;-52
2020/12/16 03:35:55;;;;;;;20.17;12.97;;;4.90;99.90;;;;;;5053612;28;20508;-58
2020/12/16 03:38:21;;;;;;;18.23;13.63;;;4.90;99.90;;;;;;5053969;28;20195;-60
2020/12/16 03:40:46;;;;;;;17.07;13.30;;;5.00;99.90;;;;;;5053986;28;20568;-57
2020/12/16 03:43:12;;;;;;;16.63;12.83;;;5.00;99.90;;;;;;5053826;28;20626;-51
2020/12/16 03:45:37;;;;;;;18.67;13.40;;;5.10;99.90;;;;;;5053820;28;20194;-53
2020/12/16 03:48:03;;;;;;;18.47;13.17;;;5.10;99.90;;;;;;5053622;28;20221;-51
2020/12/16 03:50:28;;;;;;;19.83;14.77;;;5.20;99.90;;;;;;5054035;28;20171;-59
2020/12/16 03:52:54;;;;;;;18.00;13.73;;;5.20;99.90;;;;;;5053584;28;20171;-52
2020/12/16 03:55:19;;;;;;;19.20;14.27;;;5.10;99.90;;;;;;5053739;28;20254;-60
2020/12/16 03:57:45;;;;;;;18.33;13.97;;;5.20;99.90;;;;;;5053652;28;20542;-59
2020/12/16 04:00:10;;;;;;;20.40;14.87;;;5.20;99.90;;;;;;5053536;28;20198;-56
2020/12/16 04:02:38;;;;;;;18.10;13.80;;;5.20;99.90;;;;;;5053475;28;20534;-51
2020/12/16 04:05:05;;;;;;;16.30;12.70;;;5.20;99.90;;;;;;5053575;28;20202;-59
2020/12/16 04:07:30;;;;;;;16.60;12.93;;;5.20;99.90;;;;;;5053706;28;20236;-51
2020/12/16 04:09:57;;;;;;;16.83;13.57;;;5.30;99.90;;;;;;5053861;28;20171;-54
2020/12/16 04:12:23;;;;;;;18.80;14.57;;;5.30;99.90;;;;;;5053610;28;20542;-59
2020/12/16 04:14:48;;;;;;;16.43;12.70;;;5.30;99.90;;;;;;5056963;28;20735;-58
2020/12/16 04:17:14;;;;;;;16.83;13.37;;;5.30;99.90;;;;;;5057330;28;20194;-51
2020/12/16 04:19:39;;;;;;;19.13;14.30;;;5.30;99.90;;;;;;5057552;28;20626;-52
2020/12/16 04:22:05;;;;;;;17.17;13.93;;;5.20;99.90;;;;;;5057369;28;20606;-60
2020/12/16 04:24:30;;;;;;;16.50;13.53;;;5.20;99.90;;;;;;5057139;28;20689;-56
2020/12/16 04:26:56;;;;;;;16.57;13.90;;;5.10;99.90;;;;;;5057171;28;20593;-60
2020/12/16 04:29:21;;;;;;;16.43;13.30;;;5.00;99.90;;;;;;5057842;28;20557;-60
2020/12/16 04:31:51;;;;;;;17.43;14.03;;;5.00;99.90;;;;;;5057694;28;20264;-52
2020/12/16 04:34:17;;;;;;;18.17;14.50;;;5.00;99.90;;;;;;5057617;28;20507;-52
2020/12/16 04:36:50;;;;;;;16.33;13.07;;;5.00;99.90;;;;;;5057047;28;20187;-54
2020/12/16 04:39:16;;;;;;;18.07;14.23;;;5.00;99.90;;;;;;5057233;28;20167;-60
2020/12/16 04:41:43;;;;;;;17.53;13.93;;;5.00;99.90;;;;;;5056878;28;20167;-52
2020/12/16 04:44:11;;;;;;;17.13;13.07;;;5.10;99.90;;;;;;5039375;28;20515;-52
2020/12/16 04:46:41;;;;;;;16.97;13.17;;;5.10;99.90;;;;;;5057305;28;20174;-51
2020/12/16 04:49:08;;;;;;;15.20;11.63;;;5.10;99.90;;;;;;5041935;28;20188;-56
2020/12/16 04:51:35;;;;;;;13.30;10.63;;;5.00;99.90;;;;;;5036991;28;20169;-51
2020/12/16 04:54:02;;;;;;;15.13;12.43;;;4.90;99.90;;;;;;5037076;28;20168;-59
2020/12/16 04:56:29;;;;;;;14.77;11.90;;;4.90;99.90;;;;;;5036523;28;20187;-51
2020/12/16 04:58:55;;;;;;;13.13;10.37;;;4.90;99.90;;;;;;5053519;28;20190;-56
2020/12/16 05:01:20;;;;;;;14.03;10.37;;;5.00;99.90;;;;;;5068712;28;20503;-59
2020/12/16 05:03:46;;;;;;;13.07;9.93;;;5.00;99.90;;;;;;5067191;28;20265;-50
2020/12/16 05:06:12;;;;;;;12.63;10.50;;;5.00;99.90;;;;;;5054292;28;20218;-50
2020/12/16 05:08:37;;;;;;;14.70;11.77;;;5.10;99.90;;;;;;5051693;28;20691;-57
2020/12/16 05:11:04;;;;;;;14.47;11.20;;;5.10;99.90;;;;;;5052794;28;20202;-57
2020/12/16 05:13:30;;;;;;;12.87;10.57;;;5.10;99.90;;;;;;5035487;28;20611;-60
2020/12/16 05:16:01;;;;;;;13.83;10.90;;;5.20;99.90;;;;;;5068657;28;20261;-61
2020/12/16 05:18:26;;;;;;;14.40;12.10;;;5.20;99.90;;;;;;5045336;28;20231;-54
2020/12/16 05:20:57;;;;;;;14.77;11.80;;;5.30;99.90;;;;;;5072508;28;20214;-58
2020/12/16 05:23:28;;;;;;;12.67;10.33;;;5.30;99.90;;;;;;5052000;28;20648;-50
2020/12/16 05:25:59;;;;;;;12.93;10.30;;;5.40;99.90;;;;;;5059537;28;20233;-56
2020/12/16 05:28:29;;;;;;;10.77;8.97;;;5.40;99.90;;;;;;5068865;28;20253;-61
2020/12/16 05:30:55;;;;;;;11.60;9.73;;;5.40;99.90;;;;;;5036204;28;20179;-53
2020/12/16 05:33:21;;;;;;;12.03;9.93;;;5.30;99.90;;;;;;5034402;28;20286;-52
2020/12/16 05:35:53;;;;;;;12.13;10.37;;;5.10;99.90;;;;;;5035001;28;20202;-58
2020/12/16 05:38:19;;;;;;;13.33;10.27;;;4.80;99.90;;;;;;5036225;28;20211;-51
2020/12/16 05:40:45;;;;;;;14.87;11.30;;;4.50;99.90;;;;;;5035887;28;20526;-59
2020/12/16 05:43:24;;;;;;;14.83;10.97;;;4.40;99.90;;;;;;5035672;28;20176;-53
2020/12/16 05:45:50;;;;;;;15.17;11.87;;;4.40;99.90;;;;;;5035574;28;20671;-52
2020/12/16 05:48:15;;;;;;;13.90;11.17;;;4.10;99.90;;;;;;5036418;28;20286;-58
2020/12/16 05:50:56;;;;;;;14.90;11.73;;;3.90;99.90;;;;;;5035837;28;20184;-54
2020/12/16 05:53:24;;;;;;;16.27;12.80;;;3.80;99.90;;;;;;5036570;28;20183;-58
2020/12/16 05:55:58;;;;;;;14.43;11.23;;;3.60;99.90;;;;;;5039287;28;20186;-59
2020/12/16 05:58:29;;;;;;;15.13;11.60;;;3.60;99.90;;;;;;5036045;28;20211;-54
2020/12/16 06:00:56;;;;;;;15.00;11.53;;;3.60;99.90;;;;;;5052242;28;20237;-60
2020/12/16 06:03:26;;;;;;;14.87;11.37;;;3.60;99.90;;;;;;5056211;28;20186;-61
2020/12/16 06:05:57;;;;;;;15.07;12.20;;;3.60;99.90;;;;;;5043218;28;20191;-61
2020/12/16 06:08:23;;;;;;;17.50;13.03;;;3.50;99.90;;;;;;5035779;28;20262;-59
2020/12/16 06:10:51;;;;;;;14.33;11.63;;;3.50;99.90;;;;;;5035488;28;20219;-50
2020/12/16 06:13:19;;;;;;;15.70;12.67;;;3.40;99.90;;;;;;5037156;28;20229;-51
2020/12/16 06:15:54;;;;;;;15.93;12.60;;;3.40;99.90;;;;;;5030390;28;20196;-60
2020/12/16 06:18:23;;;;;;;17.60;12.83;;;3.40;99.90;;;;;;5045327;28;20205;-61
2020/12/16 06:20:49;;;;;;;20.80;15.03;;;3.40;99.90;;;;;;5043250;28;20218;-59
2020/12/16 06:23:22;;;;;;;17.37;14.07;;;3.40;99.90;;;;;;5052737;28;20186;-58
2020/12/16 06:25:52;;;;;;;17.37;13.43;;;3.40;99.90;;;;;;5042111;28;20221;-55
2020/12/16 06:28:19;;;;;;;19.67;14.73;;;3.50;99.90;;;;;;5045975;28;20199;-53
2020/12/16 06:30:52;;;;;;;20.10;15.23;;;3.50;99.90;;;;;;5035092;28;20207;-55
2020/12/16 06:33:30;;;;;;;17.30;13.40;;;3.50;99.90;;;;;;5039317;28;20187;-58
2020/12/16 06:36:04;;;;;;;17.93;13.60;;;3.50;99.90;;;;;;5052243;28;20186;-61
2020/12/16 06:38:30;;;;;;;21.27;14.30;;;3.50;99.90;;;;;;5039378;28;20610;-60
2020/12/16 06:40:57;;;;;;;20.37;15.30;;;3.40;99.90;;;;;;5070377;28;20630;-51
2020/12/16 06:43:31;;;;;;;20.30;14.03;;;3.40;99.90;;;;;;5072748;28;20185;-59
2020/12/16 06:46:02;;;;;;;24.20;16.77;;;3.30;99.90;;;;;;5054706;28;20224;-55
2020/12/16 06:48:38;;;;;;;22.40;16.47;;;3.30;99.90;;;;;;5054613;28;20219;-54
2020/12/16 06:51:18;;;;;;;24.67;17.93;;;3.30;99.90;;;;;;5054917;28;20175;-52
2020/12/16 06:53:44;;;;;;;27.50;18.30;;;3.30;99.90;;;;;;5055236;28;20240;-51
2020/12/16 06:56:10;;;;;;;28.37;18.50;;;3.30;99.90;;;;;;5054084;28;20171;-58
2020/12/16 06:58:39;;;;;;;34.70;22.07;;;3.20;99.90;;;;;;5054320;28;20252;-51
2020/12/16 07:01:10;;;;;;;28.00;19.50;;;3.20;99.90;;;;;;5054580;28;20266;-51
2020/12/16 07:03:36;;;;;;;35.27;22.93;;;3.20;99.90;;;;;;5053979;28;20175;-55
2020/12/16 07:06:02;;;;;;;29.53;20.63;;;3.20;99.90;;;;;;5054057;28;20203;-58
2020/12/16 07:08:28;;;;;;;31.47;20.50;;;3.30;99.90;;;;;;5053964;28;20206;-53
2020/12/16 07:10:55;;;;;;;34.87;23.73;;;3.30;99.90;;;;;;5052215;28;21865;-59
2020/12/16 07:13:30;;;;;;;32.00;22.33;;;3.40;99.90;;;;;;5052974;28;20554;-56
2020/12/16 07:16:07;;;;;;;43.13;24.53;;;3.40;99.90;;;;;;5053916;28;20187;-59
2020/12/16 07:18:49;;;;;;;33.77;22.37;;;3.40;99.90;;;;;;5054264;28;20206;-57
2020/12/16 07:21:26;;;;;;;37.10;23.27;;;3.50;99.90;;;;;;5054128;28;20191;-53
2020/12/16 07:24:11;;;;;;;34.70;21.67;;;3.50;99.90;;;;;;5054177;28;20178;-54
2020/12/16 07:26:48;;;;;;;32.87;21.40;;;3.60;99.90;;;;;;5054234;28;20242;-50
2020/12/16 07:29:23;;;;;;;35.67;22.90;;;3.70;99.90;;;;;;5052778;28;20620;-51
2020/12/16 07:31:54;;;;;;;35.80;23.60;;;3.90;99.90;;;;;;5054205;28;20253;-52
2020/12/16 07:34:20;;;;;;;40.37;24.27;;;4.00;99.90;;;;;;5052876;28;20186;-57
2020/12/16 07:36:52;;;;;;;39.00;23.90;;;4.00;99.90;;;;;;5053982;28;20182;-57
2020/12/16 07:39:17;;;;;;;36.60;23.60;;;4.20;99.90;;;;;;5052978;28;20639;-56
2020/12/16 07:41:45;;;;;;;40.23;25.90;;;4.40;99.90;;;;;;5054202;28;20176;-57
2020/12/16 07:44:10;;;;;;;40.70;25.53;;;4.50;99.90;;;;;;5053065;28;20272;-52
2020/12/16 07:46:36;;;;;;;46.03;28.50;;;4.60;99.90;;;;;;5053811;28;20630;-61
2020/12/16 07:49:01;;;;;;;43.43;27.00;;;4.60;99.90;;;;;;5054089;28;20171;-58
2020/12/16 07:51:27;;;;;;;44.10;27.57;;;4.60;99.90;;;;;;5053952;28;20194;-61
2020/12/16 07:53:52;;;;;;;48.80;30.20;;;4.40;99.90;;;;;;5053889;28;20167;-62
2020/12/16 07:56:19;;;;;;;40.20;25.33;;;4.30;99.90;;;;;;5053423;28;20261;-55
2020/12/16 07:58:45;;;;;;;47.00;28.77;;;4.30;99.90;;;;;;5053992;28;20186;-59
2020/12/16 08:01:12;;;;;;;43.70;27.23;;;4.30;99.90;;;;;;5053725;28;20606;-52
2020/12/16 08:03:38;;;;;;;42.30;27.37;;;4.30;99.90;;;;;;5054090;28;20224;-51
2020/12/16 08:06:05;;;;;;;48.27;28.60;;;4.20;99.90;;;;;;5053826;28;20662;-60
2020/12/16 08:08:31;;;;;;;50.20;30.13;;;4.20;99.90;;;;;;5054116;28;20191;-51
2020/12/16 08:10:57;;;;;;;41.57;27.53;;;4.20;99.90;;;;;;5053519;28;20191;-51
2020/12/16 08:13:25;;;;;;;43.03;27.30;;;4.20;99.90;;;;;;5053461;28;20282;-62
2020/12/16 08:15:50;;;;;;;47.73;28.27;;;4.40;99.90;;;;;;5053327;28;20232;-55
2020/12/16 08:18:20;;;;;;;43.67;27.40;;;4.30;99.90;;;;;;5053434;28;20202;-50
2020/12/16 08:20:46;;;;;;;43.67;28.37;;;4.40;99.90;;;;;;5054009;28;20175;-51
2020/12/16 08:23:14;;;;;;;41.10;27.43;;;4.50;99.90;;;;;;5049185;28;20249;-60
2020/12/16 08:25:40;;;;;;;42.50;27.83;;;4.60;99.90;;;;;;5053066;28;20716;-60
2020/12/16 08:28:06;;;;;;;44.50;27.77;;;4.60;99.90;;;;;;5053394;28;20195;-57
2020/12/16 08:30:33;;;;;;;41.17;26.20;;;4.70;99.90;;;;;;5053161;28;20254;-52
2020/12/16 08:33:03;;;;;;;40.63;26.93;;;4.80;99.90;;;;;;5053670;28;20179;-59
2020/12/16 08:35:41;;;;;;;42.77;28.30;;;4.90;99.90;;;;;;5053065;28;20249;-51
2020/12/16 08:38:09;;;;;;;43.20;26.37;;;5.00;99.90;;;;;;5052663;28;20198;-60
2020/12/16 08:40:45;;;;;;;42.73;28.00;;;5.00;99.90;;;;;;5052490;28;20199;-53
2020/12/16 08:43:16;;;;;;;41.93;26.60;;;4.90;99.90;;;;;;5052333;28;20178;-60
2020/12/16 08:45:42;;;;;;;40.10;26.57;;;4.80;99.90;;;;;;5053196;28;20562;-56
2020/12/16 08:48:07;;;;;;;39.40;26.33;;;4.60;99.90;;;;;;5053614;28;20187;-55
2020/12/16 08:50:33;;;;;;;41.27;25.43;;;4.50;99.90;;;;;;5053851;28;20186;-51
2020/12/16 08:53:00;;;;;;;44.50;25.80;;;4.50;99.90;;;;;;5052434;28;20633;-55
2020/12/16 08:55:25;;;;;;;38.33;25.20;;;4.50;99.90;;;;;;5052749;28;20237;-59
2020/12/16 08:57:56;;;;;;;44.60;26.87;;;4.60;99.90;;;;;;5052832;28;20199;-60
2020/12/16 09:00:36;;;;;;;40.27;27.10;;;4.70;99.90;;;;;;5056131;28;20175;-60
2020/12/16 09:03:03;;;;;;;41.27;26.57;;;4.70;99.90;;;;;;5053340;28;20193;-54
2020/12/16 09:05:29;;;;;;;40.97;25.20;;;4.80;99.90;;;;;;5053282;28;20191;-51
2020/12/16 09:08:09;;;;;;;41.67;26.37;;;5.00;99.90;;;;;;5057079;28;20191;-51
2020/12/16 09:10:36;;;;;;;39.13;25.57;;;5.00;99.90;;;;;;5056523;28;20245;-53
2020/12/16 09:13:14;;;;;;;39.27;24.17;;;4.90;99.90;;;;;;5055978;28;20183;-58
2020/12/16 09:15:43;;;;;;;32.90;21.30;;;4.90;99.90;;;;;;5056468;28;20187;-56
2020/12/16 09:18:10;;;;;;;36.00;22.93;;;4.90;99.90;;;;;;5056600;28;20223;-56
2020/12/16 09:20:36;;;;;;;37.80;23.97;;;4.90;99.90;;;;;;5054434;28;20181;-51
2020/12/16 09:23:02;;;;;;;34.33;22.73;;;5.00;99.90;;;;;;5036719;28;20183;-53
2020/12/16 09:25:27;;;;;;;34.00;21.47;;;5.00;99.90;;;;;;5035993;28;20210;-51
2020/12/16 09:27:59;;;;;;;34.37;22.57;;;5.00;99.90;;;;;;5018474;28;20291;-51
2020/12/16 09:30:34;;;;;;;34.03;22.60;;;4.90;99.90;;;;;;5035989;28;20194;-61
2020/12/16 09:33:16;;;;;;;34.00;21.97;;;5.00;99.90;;;;;;5036201;28;20175;-58
2020/12/16 09:35:43;;;;;;;28.13;20.77;;;5.10;99.90;;;;;;5036052;28;20180;-61
2020/12/16 09:38:16;;;;;;;35.37;21.40;;;5.30;99.90;;;;;;5036208;28;20242;-52
2020/12/16 09:40:42;;;;;;;32.53;22.23;;;5.30;99.90;;;;;;5036620;28;20270;-59
2020/12/16 09:43:10;;;;;;;43.47;25.40;;;5.20;99.90;;;;;;5035956;28;20238;-52
2020/12/16 09:45:36;;;;;;;33.53;21.77;;;5.10;99.90;;;;;;5035790;28;20525;-58
2020/12/16 09:48:02;;;;;;;33.43;22.33;;;5.00;99.90;;;;;;5036008;28;20254;-54
2020/12/16 09:50:30;;;;;;;35.67;23.93;;;5.20;99.90;;;;;;5036311;28;20176;-55
2020/12/16 09:53:04;;;;;;;32.63;23.00;;;5.30;99.90;;;;;;5036490;28;20186;-56
2020/12/16 09:55:35;;;;;;;34.60;23.57;;;5.20;99.90;;;;;;5035769;28;20201;-51
2020/12/16 09:58:09;;;;;;;32.80;22.73;;;5.30;99.90;;;;;;5035632;28;20195;-56
2020/12/16 10:00:36;;;;;;;32.57;23.20;;;5.50;99.90;;;;;;5035801;28;20180;-50
2020/12/16 10:03:05;;;;;;;36.10;22.63;;;5.60;99.90;;;;;;5036200;28;20314;-54
2020/12/16 10:05:33;;;;;;;33.53;22.63;;;5.70;99.90;;;;;;5035420;28;20207;-61
2020/12/16 10:07:58;;;;;;;34.27;21.83;;;5.90;99.90;;;;;;5034897;28;20200;-61
2020/12/16 10:10:27;;;;;;;38.00;25.30;;;5.80;99.90;;;;;;5034553;28;20187;-60
2020/12/16 10:12:53;;;;;;;33.40;23.23;;;5.70;99.90;;;;;;5035101;28;20168;-55
2020/12/16 10:15:18;;;;;;;36.37;23.73;;;5.60;99.90;;;;;;5035200;28;20179;-60
2020/12/16 10:17:44;;;;;;;36.77;25.23;;;5.60;99.90;;;;;;5035403;28;20196;-60
2020/12/16 10:20:11;;;;;;;30.00;21.17;;;5.60;99.90;;;;;;5035978;28;20512;-61
2020/12/16 10:22:36;;;;;;;32.47;22.47;;;5.70;99.90;;;;;;5035429;28;20665;-61
2020/12/16 10:25:02;;;;;;;34.13;23.50;;;5.80;99.90;;;;;;5035395;28;20199;-61
2020/12/16 10:27:28;;;;;;;36.23;26.57;;;5.70;99.90;;;;;;5035242;28;20188;-60
2020/12/16 10:29:55;;;;;;;34.13;23.90;;;5.60;99.90;;;;;;5035752;28;20214;-59
2020/12/16 10:32:21;;;;;;;36.33;25.43;;;5.60;99.90;;;;;;5035603;28;20171;-53
2020/12/16 10:34:46;;;;;;;35.40;25.27;;;5.50;99.90;;;;;;5034755;28;20179;-51
2020/12/16 10:37:12;;;;;;;38.10;24.87;;;5.50;99.90;;;;;;5034918;28;20192;-61
2020/12/16 10:39:38;;;;;;;34.37;23.83;;;5.50;99.90;;;;;;5034816;28;20639;-57
2020/12/16 10:42:03;;;;;;;36.27;24.77;;;5.50;99.90;;;;;;5034846;28;20310;-57
2020/12/16 10:44:29;;;;;;;34.87;24.60;;;5.50;99.90;;;;;;5034880;28;20180;-51
2020/12/16 10:46:55;;;;;;;36.73;25.57;;;5.50;99.90;;;;;;5035635;28;20639;-51
2020/12/16 10:49:23;;;;;;;36.60;24.23;;;5.40;99.90;;;;;;5034883;28;20180;-56
2020/12/16 10:51:48;;;;;;;35.67;24.47;;;5.40;99.90;;;;;;5035536;28;20191;-57
2020/12/16 10:54:14;;;;;;;37.33;24.93;;;5.40;99.90;;;;;;5034950;28;20176;-53
2020/12/16 10:56:39;;;;;;;35.57;24.30;;;5.50;99.90;;;;;;5034726;28;20195;-61
2020/12/16 10:59:05;;;;;;;34.73;23.97;;;5.50;99.90;;;;;;5034994;28;20176;-59
2020/12/16 11:01:38;;;;;;;36.50;24.70;;;5.70;99.90;;;;;;5035211;28;20303;-58
2020/12/16 11:04:09;;;;;;;36.83;24.67;;;5.90;99.90;;;;;;5035173;28;20267;-52
2020/12/16 11:06:36;;;;;;;36.70;24.27;;;6.00;99.90;;;;;;5034672;28;20191;-60
2020/12/16 11:09:03;;;;;;;35.73;24.40;;;6.10;99.90;;;;;;5034497;28;20172;-52
2020/12/16 11:11:29;;;;;;;30.37;21.97;;;6.10;99.90;;;;;;5034125;28;20186;-57
2020/12/16 11:13:54;;;;;;;34.40;23.03;;;6.00;99.90;;;;;;5034782;28;20168;-59
2020/12/16 11:16:27;;;;;;;33.43;22.67;;;6.00;99.90;;;;;;5034656;28;20219;-55
2020/12/16 11:18:54;;;;;;;36.43;25.43;;;6.00;99.90;;;;;;5034627;28;20180;-57
2020/12/16 11:21:19;;;;;;;36.40;25.03;;;6.00;99.90;;;;;;5034369;28;20250;-59
2020/12/16 11:23:45;;;;;;;32.90;22.77;;;6.10;99.90;;;;;;5033766;28;20714;-60
2020/12/16 11:26:10;;;;;;;31.87;22.50;;;6.10;99.90;;;;;;5033127;28;20655;-60
2020/12/16 11:28:36;;;;;;;34.40;23.10;;;6.30;99.90;;;;;;5033848;28;20262;-53
2020/12/16 11:31:01;;;;;;;33.83;24.13;;;6.60;99.90;;;;;;5033717;28;20263;-60
2020/12/16 11:33:28;;;;;;;31.77;21.70;;;6.70;99.90;;;;;;5046467;28;20237;-53
2020/12/16 11:35:54;;;;;;;33.07;22.47;;;6.90;99.90;;;;;;5053830;28;20262;-56
2020/12/16 11:38:19;;;;;;;31.70;22.33;;;6.90;99.90;;;;;;5054274;28;20190;-51
2020/12/16 11:40:45;;;;;;;32.43;22.30;;;6.90;99.90;;;;;;5054280;28;20167;-58
2020/12/16 11:43:10;;;;;;;33.93;22.87;;;7.00;99.90;;;;;;5052993;28;20236;-52
2020/12/16 11:45:36;;;;;;;28.73;21.10;;;7.20;99.90;;;;;;5046672;28;20738;-59
2020/12/16 11:48:02;;;;;;;32.93;22.57;;;7.30;99.90;;;;;;5047669;28;20198;-54
2020/12/16 11:50:27;;;;;;;31.17;21.30;;;7.30;99.90;;;;;;5053074;28;20220;-61
2020/12/16 11:52:53;;;;;;;31.17;22.97;;;7.30;99.90;;;;;;5052777;28;20206;-60
2020/12/16 11:55:18;;;;;;;30.50;22.07;;;7.30;99.90;;;;;;5053340;28;20508;-61
2020/12/16 11:57:44;;;;;;;29.80;21.63;;;7.40;99.90;;;;;;5052923;28;20215;-53
2020/12/16 12:00:09;;;;;;;29.20;20.83;;;7.20;99.90;;;;;;5041835;28;20183;-60
2020/12/16 12:02:35;;;;;;;30.53;22.00;;;7.20;99.90;;;;;;5052565;28;20191;-53
2020/12/16 12:05:02;;;;;;;30.30;20.90;;;7.30;99.90;;;;;;5049130;28;20623;-53
2020/12/16 12:07:28;;;;;;;30.30;21.23;;;7.40;99.90;;;;;;5054038;28;20198;-60
2020/12/16 12:09:54;;;;;;;29.42;23.35;;;7.40;99.90;;;;;;5043491;28;20421;-57
2020/12/16 12:12:19;;;;;;;28.60;22.10;;;7.50;99.90;;;;;;5052391;28;20229;-55
2020/12/16 12:14:45;;;;;;;29.67;21.57;;;7.40;99.90;;;;;;5042887;28;20199;-56
2020/12/16 12:17:11;;;;;;;31.57;21.40;;;7.40;99.90;;;;;;5051110;28;20203;-55
2020/12/16 12:19:40;;;;;;;28.33;21.70;;;7.40;99.90;;;;;;5052985;28;20187;-50
2020/12/16 12:22:07;;;;;;;30.03;21.63;;;7.50;99.90;;;;;;5052796;28;20183;-50
2020/12/16 12:24:32;;;;;;;31.87;21.50;;;7.60;99.90;;;;;;5044070;28;20187;-55
2020/12/16 12:26:58;;;;;;;31.27;21.97;;;7.50;99.90;;;;;;5033278;28;20226;-53
2020/12/16 12:29:23;;;;;;;30.67;20.77;;;7.50;99.90;;;;;;5050460;28;20266;-55
2020/12/16 12:31:49;;;;;;;30.67;22.00;;;7.60;99.90;;;;;;5053557;28;20500;-59
2020/12/16 12:34:14;;;;;;;29.97;21.83;;;7.70;99.90;;;;;;5053542;28;20231;-51
2020/12/16 12:36:40;;;;;;;33.08;25.95;;;7.70;99.90;;;;;;5051571;28;20442;-51
2020/12/16 12:39:06;;;;;;;30.30;22.87;;;7.50;99.90;;;;;;5056988;28;20229;-57